Time;durP1;ratioP1;P1;durP2;ratioP2;P2;SDS_P1;SDS_P2;PMS_P1;PMS_P2;Temp;Humidity;BMP_temperature;BMP_pressure;BME280_temperature;BME280_humidity;BME280_pressure;Samples;Min_cycle;Max_cycle;Signal;HPM_P1;HPM_P2
2023/04/26 00:00:10;;;;;;;5.40;2.30;;;;;;;-128.00;-1.00;-1.00;91861;293;3003280;-30
2023/04/26 00:02:36;;;;;;;1.90;0.80;;;;;;;-128.00;-1.00;-1.00;18610;301;7505996;-28
2023/04/26 00:05:02;;;;;;;14.00;2.40;;;;;;;-128.00;-1.00;-1.00;18521;293;7506370;-32
2023/04/26 00:07:29;;;;;;;13.20;1.50;;;;;;;-128.00;-1.00;-1.00;18484;334;7506458;-33
2023/04/26 00:09:55;;;;;;;3.90;1.80;;;;;;;-128.00;-1.00;-1.00;18465;293;7505939;-32
2023/04/26 00:12:21;;;;;;;11.40;2.00;;;;;;;-128.00;-1.00;-1.00;18469;293;7505016;-34
2023/04/26 00:14:46;;;;;;;2.60;1.00;;;;;;;-128.00;-1.00;-1.00;18504;286;7504811;-34
2023/04/26 00:17:12;;;;;;;4.70;1.90;;;;;;;-128.00;-1.00;-1.00;18878;293;7504893;-31
2023/04/26 00:19:39;;;;;;;8.00;1.60;;;;;;;-128.00;-1.00;-1.00;18883;293;7503914;-33
2023/04/26 00:22:05;;;;;;;12.20;1.90;;;;;;;-128.00;-1.00;-1.00;18512;346;7506298;-29
2023/04/26 00:24:31;;;;;;;0.70;0.60;;;;;;;-128.00;-1.00;-1.00;18496;298;7504829;-29
2023/04/26 00:26:57;;;;;;;2.60;1.30;;;;;;;-128.00;-1.00;-1.00;18492;293;7505217;-29
2023/04/26 00:29:22;;;;;;;17.40;2.30;;;;;;;-128.00;-1.00;-1.00;18465;294;7506338;-33
2023/04/26 00:31:48;;;;;;;0.80;0.80;;;;;;;-128.00;-1.00;-1.00;18488;293;7506115;-29
2023/04/26 00:34:14;;;;;;;6.90;1.20;;;;;;;-128.00;-1.00;-1.00;18480;288;7505662;-30
2023/04/26 00:36:40;;;;;;;3.50;2.20;;;;;;;-128.00;-1.00;-1.00;18494;294;7504582;-30
2023/04/26 00:39:08;;;;;;;16.70;4.20;;;;;;;-128.00;-1.00;-1.00;18454;295;7505910;-34
2023/04/26 00:41:34;;;;;;;2.80;1.10;;;;;;;-128.00;-1.00;-1.00;18481;286;7506003;-33
2023/04/26 00:43:59;;;;;;;6.70;2.40;;;;;;;-128.00;-1.00;-1.00;18484;309;7504571;-30
2023/04/26 00:46:27;;;;;;;8.20;2.00;;;;;;;-128.00;-1.00;-1.00;18521;293;7506202;-34
2023/04/26 00:48:54;;;;;;;6.70;2.10;;;;;;;-128.00;-1.00;-1.00;18498;293;7506179;-33
2023/04/26 00:51:19;;;;;;;2.50;1.10;;;;;;;-128.00;-1.00;-1.00;18494;294;7504163;-29
2023/04/26 00:53:46;;;;;;;4.10;1.00;;;;;;;-128.00;-1.00;-1.00;18894;309;7504443;-34
2023/04/26 00:56:12;;;;;;;3.90;1.90;;;;;;;-128.00;-1.00;-1.00;18918;294;7504673;-33
2023/04/26 00:58:38;;;;;;;6.50;1.90;;;;;;;-128.00;-1.00;-1.00;18876;288;7504505;-30
2023/04/26 01:01:06;;;;;;;8.00;2.40;;;;;;;-128.00;-1.00;-1.00;18876;346;7505716;-30
2023/04/26 01:03:31;;;;;;;3.40;1.70;;;;;;;-128.00;-1.00;-1.00;18468;294;7504359;-30
2023/04/26 01:05:58;;;;;;;10.50;2.60;;;;;;;-128.00;-1.00;-1.00;18905;309;7504746;-35
2023/04/26 01:08:24;;;;;;;3.30;0.90;;;;;;;-128.00;-1.00;-1.00;18948;346;7505002;-33
2023/04/26 01:10:50;;;;;;;13.50;2.30;;;;;;;-128.00;-1.00;-1.00;18880;294;7504330;-30
2023/04/26 01:13:17;;;;;;;2.30;1.40;;;;;;;-128.00;-1.00;-1.00;18928;294;7505328;-35
2023/04/26 01:15:44;;;;;;;11.60;2.40;;;;;;;-128.00;-1.00;-1.00;18875;294;7504259;-34
2023/04/26 01:18:10;;;;;;;2.00;1.60;;;;;;;-128.00;-1.00;-1.00;18476;294;7505236;-35
2023/04/26 01:20:36;;;;;;;9.20;2.60;;;;;;;-128.00;-1.00;-1.00;18464;294;7504591;-30
2023/04/26 01:23:02;;;;;;;3.80;2.30;;;;;;;-128.00;-1.00;-1.00;18545;338;7506052;-30
2023/04/26 01:25:28;;;;;;;7.70;2.30;;;;;;;-128.00;-1.00;-1.00;18475;294;7504833;-30
2023/04/26 01:27:54;;;;;;;4.10;2.30;;;;;;;-128.00;-1.00;-1.00;18460;294;7504340;-30
2023/04/26 01:30:19;;;;;;;9.30;2.90;;;;;;;-128.00;-1.00;-1.00;18485;294;7504613;-35
2023/04/26 01:32:45;;;;;;;4.80;2.40;;;;;;;-128.00;-1.00;-1.00;18487;288;7504400;-29
2023/04/26 01:35:11;;;;;;;4.10;1.30;;;;;;;-128.00;-1.00;-1.00;18491;346;7504737;-30
2023/04/26 01:37:36;;;;;;;13.20;1.30;;;;;;;-128.00;-1.00;-1.00;18499;294;7506713;-30
2023/04/26 01:40:05;;;;;;;5.60;1.70;;;;;;;-128.00;-1.00;-1.00;18888;294;7503937;-34
2023/04/26 01:42:31;;;;;;;6.60;0.90;;;;;;;-128.00;-1.00;-1.00;18476;294;7505874;-34
2023/04/26 01:44:57;;;;;;;10.20;1.00;;;;;;;-128.00;-1.00;-1.00;18529;294;7504906;-30
2023/04/26 01:47:25;;;;;;;6.00;2.30;;;;;;;-128.00;-1.00;-1.00;18852;306;7505322;-30
2023/04/26 01:49:51;;;;;;;1.10;0.30;;;;;;;-128.00;-1.00;-1.00;18476;294;7504839;-30
2023/04/26 01:52:16;;;;;;;0.70;0.20;;;;;;;-128.00;-1.00;-1.00;18522;334;7506352;-34
2023/04/26 01:54:42;;;;;;;2.20;1.20;;;;;;;-128.00;-1.00;-1.00;18448;334;7505105;-34
2023/04/26 01:57:08;;;;;;;4.90;1.20;;;;;;;-128.00;-1.00;-1.00;18463;294;7506243;-34
2023/04/26 01:59:34;;;;;;;3.20;1.40;;;;;;;-128.00;-1.00;-1.00;18484;294;7505001;-29
2023/04/26 02:02:11;;;;;;;1.50;0.50;;;;;;;-128.00;-1.00;-1.00;18465;294;7506098;-33
2023/04/26 02:04:37;;;;;;;0.50;0.20;;;;;;;-128.00;-1.00;-1.00;18533;294;7507242;-34
2023/04/26 02:07:03;;;;;;;6.00;0.90;;;;;;;-128.00;-1.00;-1.00;18879;294;7504986;-31
2023/04/26 02:09:29;;;;;;;5.20;2.40;;;;;;;-128.00;-1.00;-1.00;18886;286;7505359;-34
2023/04/26 02:11:55;;;;;;;8.10;2.70;;;;;;;-128.00;-1.00;-1.00;18882;294;7504107;-33
2023/04/26 02:14:21;;;;;;;8.90;2.70;;;;;;;-128.00;-1.00;-1.00;18877;329;7504318;-34
2023/04/26 02:16:48;;;;;;;3.50;1.70;;;;;;;-128.00;-1.00;-1.00;18879;317;7505185;-33
2023/04/26 02:19:14;;;;;;;4.90;1.50;;;;;;;-128.00;-1.00;-1.00;18875;294;7504525;-29
2023/04/26 02:21:56;;;;;;;9.70;1.90;;;;;;;-128.00;-1.00;-1.00;18879;294;7505704;-29
2023/04/26 02:24:23;;;;;;;7.90;1.80;;;;;;;-128.00;-1.00;-1.00;18484;294;7506232;-29
2023/04/26 02:26:49;;;;;;;4.60;1.60;;;;;;;-128.00;-1.00;-1.00;18468;294;7506890;-29
2023/04/26 02:29:15;;;;;;;16.10;3.10;;;;;;;-128.00;-1.00;-1.00;18441;304;7504842;-29
2023/04/26 02:31:41;;;;;;;0.70;0.60;;;;;;;-128.00;-1.00;-1.00;18511;305;7504497;-32
2023/04/26 02:34:07;;;;;;;2.50;0.70;;;;;;;-128.00;-1.00;-1.00;18885;340;7504762;-34
2023/04/26 02:36:33;;;;;;;4.90;1.70;;;;;;;-128.00;-1.00;-1.00;18876;294;7504361;-30
2023/04/26 02:38:59;;;;;;;10.70;2.10;;;;;;;-128.00;-1.00;-1.00;18873;301;7504169;-34
2023/04/26 02:41:26;;;;;;;4.30;2.20;;;;;;;-128.00;-1.00;-1.00;18898;288;7505451;-33
2023/04/26 02:43:52;;;;;;;7.30;2.30;;;;;;;-128.00;-1.00;-1.00;18869;346;7504574;-34
2023/04/26 02:46:18;;;;;;;5.90;1.70;;;;;;;-128.00;-1.00;-1.00;18884;294;7504677;-32
2023/04/26 02:48:45;;;;;;;3.20;1.80;;;;;;;-128.00;-1.00;-1.00;18886;294;7505636;-30
2023/04/26 02:51:11;;;;;;;1.90;0.90;;;;;;;-128.00;-1.00;-1.00;18870;294;7504945;-29
2023/04/26 02:53:37;;;;;;;7.10;1.20;;;;;;;-128.00;-1.00;-1.00;18910;294;7504330;-34
2023/04/26 02:56:03;;;;;;;7.80;1.80;;;;;;;-128.00;-1.00;-1.00;18900;317;7504959;-31
2023/04/26 02:58:30;;;;;;;4.60;1.50;;;;;;;-128.00;-1.00;-1.00;18871;294;7505331;-31
2023/04/26 03:00:57;;;;;;;3.50;1.40;;;;;;;-128.00;-1.00;-1.00;18876;294;7504698;-30
2023/04/26 03:03:23;;;;;;;4.80;1.50;;;;;;;-128.00;-1.00;-1.00;18470;294;7505198;-33
2023/04/26 03:05:49;;;;;;;1.60;1.20;;;;;;;-128.00;-1.00;-1.00;18499;294;7507318;-29
2023/04/26 03:08:15;;;;;;;4.50;1.90;;;;;;;-128.00;-1.00;-1.00;18478;334;7504189;-30
2023/04/26 03:10:40;;;;;;;2.30;2.10;;;;;;;-128.00;-1.00;-1.00;18507;346;7507069;-29
2023/04/26 03:13:06;;;;;;;2.90;1.80;;;;;;;-128.00;-1.00;-1.00;18876;295;7504565;-33
2023/04/26 03:15:32;;;;;;;9.60;2.30;;;;;;;-128.00;-1.00;-1.00;18901;294;7504273;-34
2023/04/26 03:17:59;;;;;;;2.90;1.80;;;;;;;-128.00;-1.00;-1.00;18911;294;7504523;-29
2023/04/26 03:20:25;;;;;;;3.40;2.20;;;;;;;-128.00;-1.00;-1.00;18522;294;7504190;-33
2023/04/26 03:22:51;;;;;;;4.50;1.90;;;;;;;-128.00;-1.00;-1.00;18493;329;7506063;-34
2023/04/26 03:25:17;;;;;;;0.50;0.50;;;;;;;-128.00;-1.00;-1.00;18507;294;7506422;-33
2023/04/26 03:27:42;;;;;;;3.80;2.10;;;;;;;-128.00;-1.00;-1.00;18501;334;7504735;-34
2023/04/26 03:30:08;;;;;;;9.80;3.00;;;;;;;-128.00;-1.00;-1.00;18492;294;7504325;-34
2023/04/26 03:32:34;;;;;;;38.70;2.50;;;;;;;-128.00;-1.00;-1.00;18487;346;7505858;-32
2023/04/26 03:35:00;;;;;;;2.10;1.20;;;;;;;-128.00;-1.00;-1.00;18882;294;7505008;-32
2023/04/26 03:37:26;;;;;;;4.40;2.40;;;;;;;-128.00;-1.00;-1.00;18904;294;7504398;-29
2023/04/26 03:39:53;;;;;;;7.70;2.50;;;;;;;-128.00;-1.00;-1.00;18886;293;7504158;-33
2023/04/26 03:42:19;;;;;;;4.20;1.90;;;;;;;-128.00;-1.00;-1.00;18922;294;7504261;-29
2023/04/26 03:44:45;;;;;;;2.50;1.60;;;;;;;-128.00;-1.00;-1.00;18502;317;7505774;-29
2023/04/26 03:47:11;;;;;;;13.80;1.70;;;;;;;-128.00;-1.00;-1.00;18535;294;7505811;-29
2023/04/26 03:49:36;;;;;;;17.50;6.10;;;;;;;-128.00;-1.00;-1.00;18484;294;7507543;-33
2023/04/26 03:52:03;;;;;;;10.50;2.80;;;;;;;-128.00;-1.00;-1.00;18880;294;7504011;-29
2023/04/26 03:54:29;;;;;;;2.60;1.40;;;;;;;-128.00;-1.00;-1.00;18901;294;7504388;-29
2023/04/26 03:56:55;;;;;;;0.90;0.50;;;;;;;-128.00;-1.00;-1.00;18922;294;7504669;-29
2023/04/26 03:59:21;;;;;;;8.20;1.80;;;;;;;-128.00;-1.00;-1.00;18904;294;7504708;-30
2023/04/26 04:01:47;;;;;;;5.50;2.30;;;;;;;-128.00;-1.00;-1.00;18896;294;7504580;-33
2023/04/26 04:04:13;;;;;;;4.70;1.40;;;;;;;-128.00;-1.00;-1.00;18888;294;7504669;-34
2023/04/26 04:06:40;;;;;;;3.30;2.10;;;;;;;-128.00;-1.00;-1.00;18947;346;7504213;-28
2023/04/26 04:09:06;;;;;;;9.50;3.20;;;;;;;-128.00;-1.00;-1.00;18507;294;7504782;-33
2023/04/26 04:11:33;;;;;;;9.60;1.80;;;;;;;-128.00;-1.00;-1.00;18933;293;7505054;-31
2023/04/26 04:13:59;;;;;;;6.80;2.30;;;;;;;-128.00;-1.00;-1.00;18492;294;7505971;-33
2023/04/26 04:16:24;;;;;;;10.60;1.70;;;;;;;-128.00;-1.00;-1.00;18533;302;7504505;-33
2023/04/26 04:18:50;;;;;;;6.70;2.30;;;;;;;-128.00;-1.00;-1.00;18472;298;7504333;-29
2023/04/26 04:21:16;;;;;;;9.30;4.40;;;;;;;-128.00;-1.00;-1.00;18466;294;7505998;-28
2023/04/26 04:23:43;;;;;;;27.40;2.90;;;;;;;-128.00;-1.00;-1.00;18452;301;7504695;-29
2023/04/26 04:26:11;;;;;;;1.50;1.10;;;;;;;-128.00;-1.00;-1.00;18499;317;7505446;-29
2023/04/26 04:28:40;;;;;;;2.00;0.90;;;;;;;-128.00;-1.00;-1.00;18501;294;7505834;-33
2023/04/26 04:31:08;;;;;;;1.50;1.00;;;;;;;-128.00;-1.00;-1.00;18469;294;7504856;-30
2023/04/26 04:33:34;;;;;;;2.80;1.10;;;;;;;-128.00;-1.00;-1.00;18506;294;7506123;-33
2023/04/26 04:36:00;;;;;;;3.60;1.80;;;;;;;-128.00;-1.00;-1.00;18475;294;7506769;-29
2023/04/26 05:17:31;;;;;;;2.30;1.40;;;;;;;-101.89;18.83;19810.66;98273;295;1544193;-33
2023/04/26 05:19:57;;;;;;;7.30;1.70;;;;;;;-128.00;-1.00;-1.00;97721;294;1004814;-34
2023/04/26 05:22:22;;;;;;;5.80;1.30;;;;;;;-128.00;-1.00;-1.00;97976;295;1003593;-30
2023/04/26 05:24:48;;;;;;;9.20;1.70;;;;;;;-128.00;-1.00;-1.00;98024;295;1002835;-33
2023/04/26 05:27:14;;;;;;;2.60;1.10;;;;;;;-128.00;-1.00;-1.00;97987;295;1003404;-33
2023/04/26 05:29:40;;;;;;;2.30;1.10;;;;;;;-128.00;-1.00;-1.00;97850;295;1002711;-33
2023/04/26 05:32:06;;;;;;;7.60;1.70;;;;;;;-128.00;-1.00;-1.00;97876;295;1002899;-33
2023/04/26 05:34:31;;;;;;;3.20;0.60;;;;;;;-128.00;-1.00;-1.00;98101;295;1003390;-29
2023/04/26 05:36:57;;;;;;;3.00;0.80;;;;;;;-128.00;-1.00;-1.00;98025;295;1004833;-29
2023/04/26 05:39:22;;;;;;;9.80;1.40;;;;;;;-128.00;-1.00;-1.00;97995;295;1003107;-29
2023/04/26 05:41:48;;;;;;;7.50;1.00;;;;;;;-128.00;-1.00;-1.00;97891;283;1004253;-31
2023/04/26 05:44:14;;;;;;;4.20;0.80;;;;;;;-128.00;-1.00;-1.00;97951;295;1003702;-33
2023/04/26 05:46:40;;;;;;;1.30;0.60;;;;;;;-128.00;-1.00;-1.00;97721;296;1003328;-29
2023/04/26 05:49:05;;;;;;;11.50;1.40;;;;;;;-128.00;-1.00;-1.00;97985;295;1003508;-28
2023/04/26 05:51:31;;;;;;;5.20;1.00;;;;;;;-128.00;-1.00;-1.00;97834;295;1003168;-30
2023/04/26 05:53:57;;;;;;;1.00;0.40;;;;;;;-128.00;-1.00;-1.00;97840;296;1002663;-29
2023/04/26 05:56:24;;;;;;;3.00;1.20;;;;;;;-128.00;-1.00;-1.00;97927;295;1003071;-28
2023/04/26 05:58:50;;;;;;;3.40;0.70;;;;;;;-128.00;-1.00;-1.00;97993;295;1003677;-30
2023/04/26 06:01:16;;;;;;;3.10;0.80;;;;;;;-128.00;-1.00;-1.00;97974;295;1002851;-30
2023/04/26 06:03:44;;;;;;;5.20;1.10;;;;;;;-128.00;-1.00;-1.00;97939;295;1003196;-28
2023/04/26 06:06:10;;;;;;;5.00;1.00;;;;;;;-128.00;-1.00;-1.00;98139;295;1003138;-29
2023/04/26 06:08:35;;;;;;;1.40;0.70;;;;;;;-128.00;-1.00;-1.00;97838;296;1003078;-33
2023/04/26 06:11:01;;;;;;;1.00;0.40;;;;;;;-128.00;-1.00;-1.00;97922;295;1003367;-35
2023/04/26 06:13:27;;;;;;;9.90;0.70;;;;;;;-128.00;-1.00;-1.00;97751;296;1004811;-33
2023/04/26 06:15:53;;;;;;;6.50;1.20;;;;;;;-128.00;-1.00;-1.00;98086;295;1002670;-29
2023/04/26 06:18:18;;;;;;;10.40;1.50;;;;;;;-128.00;-1.00;-1.00;97835;295;1003380;-33
2023/04/26 06:20:45;;;;;;;5.30;1.30;;;;;;;-128.00;-1.00;-1.00;97837;295;1003542;-30
2023/04/26 06:23:11;;;;;;;1.50;0.60;;;;;;;-128.00;-1.00;-1.00;97919;295;1003026;-29
2023/04/26 06:25:39;;;;;;;4.00;0.60;;;;;;;-128.00;-1.00;-1.00;97818;295;1003099;-29
2023/04/26 06:28:05;;;;;;;4.00;1.00;;;;;;;-128.00;-1.00;-1.00;97780;295;1002902;-33
2023/04/26 06:30:31;;;;;;;3.60;1.60;;;;;;;-128.00;-1.00;-1.00;97723;297;1002943;-29
2023/04/26 06:32:58;;;;;;;1.40;0.70;;;;;;;-128.00;-1.00;-1.00;97861;295;1002907;-33
2023/04/26 06:35:24;;;;;;;2.60;1.20;;;;;;;-128.00;-1.00;-1.00;97728;288;1003318;-33
2023/04/26 06:37:50;;;;;;;4.10;0.90;;;;;;;-128.00;-1.00;-1.00;97906;295;1002743;-32
2023/04/26 06:40:16;;;;;;;5.60;1.50;;;;;;;-128.00;-1.00;-1.00;98033;295;1003125;-29
2023/04/26 06:42:42;;;;;;;3.40;0.80;;;;;;;-128.00;-1.00;-1.00;97832;295;1003458;-33
2023/04/26 06:45:08;;;;;;;1.50;0.70;;;;;;;-128.00;-1.00;-1.00;97867;284;1003345;-30
2023/04/26 06:47:34;;;;;;;6.80;1.00;;;;;;;-128.00;-1.00;-1.00;97778;295;1003070;-33
2023/04/26 06:50:00;;;;;;;3.70;0.90;;;;;;;-128.00;-1.00;-1.00;97832;295;1004000;-33
2023/04/26 06:52:25;;;;;;;2.80;1.10;;;;;;;-128.00;-1.00;-1.00;97837;295;1003490;-35
2023/04/26 06:54:51;;;;;;;5.30;1.50;;;;;;;-128.00;-1.00;-1.00;97800;296;1002717;-33
2023/04/26 06:57:17;;;;;;;9.10;1.40;;;;;;;-128.00;-1.00;-1.00;97807;295;1003929;-33
2023/04/26 06:59:43;;;;;;;11.10;1.20;;;;;;;-128.00;-1.00;-1.00;97823;295;1002940;-32
2023/04/26 07:02:08;;;;;;;5.90;0.90;;;;;;;-128.00;-1.00;-1.00;97851;295;1003238;-34
2023/04/26 07:04:34;;;;;;;8.00;1.10;;;;;;;-128.00;-1.00;-1.00;97856;295;1003566;-30
2023/04/26 07:07:00;;;;;;;12.40;0.80;;;;;;;-128.00;-1.00;-1.00;97894;295;1004465;-30
2023/04/26 07:09:25;;;;;;;0.60;0.30;;;;;;;-128.00;-1.00;-1.00;97859;295;1002610;-29
2023/04/26 07:11:51;;;;;;;3.50;1.10;;;;;;;-128.00;-1.00;-1.00;97875;295;1003038;-33
2023/04/26 07:14:17;;;;;;;4.20;0.90;;;;;;;-128.00;-1.00;-1.00;97818;295;1002382;-33
2023/04/26 07:16:43;;;;;;;2.20;0.60;;;;;;;-128.00;-1.00;-1.00;97749;288;1003225;-34
2023/04/26 07:19:09;;;;;;;5.10;0.90;;;;;;;-128.00;-1.00;-1.00;97655;296;1003068;-35
2023/04/26 07:21:35;;;;;;;2.80;0.80;;;;;;;-128.00;-1.00;-1.00;97859;295;1003019;-29
2023/04/26 07:24:02;;;;;;;5.50;1.40;;;;;;;-128.00;-1.00;-1.00;97813;288;1003805;-36
2023/04/26 07:26:27;;;;;;;3.80;0.70;;;;;;;-128.00;-1.00;-1.00;97921;295;1002752;-35
2023/04/26 07:28:53;;;;;;;2.60;0.40;;;;;;;-128.00;-1.00;-1.00;97814;295;1002928;-33
2023/04/26 07:31:19;;;;;;;5.90;1.10;;;;;;;-128.00;-1.00;-1.00;97811;295;1003709;-29
2023/04/26 07:33:45;;;;;;;2.50;0.70;;;;;;;-128.00;-1.00;-1.00;97806;284;1004244;-34
2023/04/26 07:36:10;;;;;;;1.30;0.80;;;;;;;-128.00;-1.00;-1.00;97884;295;1002833;-34
2023/04/26 07:38:36;;;;;;;7.90;0.70;;;;;;;-128.00;-1.00;-1.00;97783;295;1003093;-33
2023/04/26 07:41:02;;;;;;;3.60;1.30;;;;;;;-128.00;-1.00;-1.00;97863;295;1002884;-29
2023/04/26 07:43:28;;;;;;;7.00;0.80;;;;;;;-128.00;-1.00;-1.00;38076;284;7505037;-34
2023/04/26 07:45:54;;;;;;;8.20;1.20;;;;;;;-128.00;-1.00;-1.00;18578;320;7504612;-35
2023/04/26 07:48:21;;;;;;;6.80;0.50;;;;;;;-128.00;-1.00;-1.00;19618;288;7504291;-34
2023/04/26 07:50:47;;;;;;;1.60;0.40;;;;;;;-128.00;-1.00;-1.00;83094;295;4503012;-30
2023/04/26 07:53:13;;;;;;;1.60;0.50;;;;;;;-128.00;-1.00;-1.00;97821;284;1002614;-34
2023/04/26 07:55:38;;;;;;;0.30;0.30;;;;;;;-128.00;-1.00;-1.00;97714;295;1004343;-33
2023/04/26 07:58:04;;;;;;;5.00;0.50;;;;;;;-128.00;-1.00;-1.00;97875;295;1003796;-29
2023/04/26 08:00:30;;;;;;;3.30;0.90;;;;;;;-128.00;-1.00;-1.00;97879;295;1003435;-33
2023/04/26 08:02:56;;;;;;;1.40;0.70;;;;;;;-128.00;-1.00;-1.00;97871;295;1004305;-30
2023/04/26 08:05:21;;;;;;;2.30;0.40;;;;;;;-128.00;-1.00;-1.00;97939;295;1004365;-29
2023/04/26 08:07:47;;;;;;;4.80;0.50;;;;;;;-128.00;-1.00;-1.00;97795;297;1003788;-29
2023/04/26 08:10:13;;;;;;;3.80;0.50;;;;;;;-128.00;-1.00;-1.00;97864;295;1004547;-29
2023/04/26 08:12:38;;;;;;;1.90;0.50;;;;;;;-128.00;-1.00;-1.00;97897;295;1003335;-29
2023/04/26 08:15:04;;;;;;;5.20;0.60;;;;;;;-128.00;-1.00;-1.00;93458;295;3002851;-33
2023/04/26 08:17:31;;;;;;;2.20;0.60;;;;;;;-128.00;-1.00;-1.00;97872;295;1003305;-34
2023/04/26 08:19:57;;;;;;;4.10;0.30;;;;;;;-128.00;-1.00;-1.00;94381;295;2852860;-29
2023/04/26 08:22:23;;;;;;;3.50;0.50;;;;;;;-128.00;-1.00;-1.00;97512;295;1003067;-29
2023/04/26 08:24:50;;;;;;;1.40;0.40;;;;;;;-128.00;-1.00;-1.00;90736;296;3002494;-37
2023/04/26 08:27:16;;;;;;;6.10;0.60;;;;;;;-128.00;-1.00;-1.00;97793;295;1003138;-34
2023/04/26 08:29:42;;;;;;;1.10;0.20;;;;;;;-128.00;-1.00;-1.00;97866;295;1002905;-29
2023/04/26 08:32:08;;;;;;;3.20;0.50;;;;;;;-128.00;-1.00;-1.00;97918;295;1002965;-30
2023/04/26 08:34:33;;;;;;;1.40;0.20;;;;;;;-128.00;-1.00;-1.00;97852;295;1002933;-30
2023/04/26 08:36:59;;;;;;;6.90;0.40;;;;;;;-128.00;-1.00;-1.00;97810;295;1003345;-34
2023/04/26 08:39:25;;;;;;;2.80;0.20;;;;;;;-128.00;-1.00;-1.00;97811;297;1004564;-33
2023/04/26 08:41:54;;;;;;;1.60;0.50;;;;;;;-128.00;-1.00;-1.00;97862;295;1003117;-36
2023/04/26 08:44:23;;;;;;;1.00;0.30;;;;;;;-128.00;-1.00;-1.00;97835;295;1003229;-34
2023/04/26 08:47:00;;;;;;;10.20;0.50;;;;;;;-128.00;-1.00;-1.00;97984;295;1002919;-30
2023/04/26 08:49:42;;;;;;;1.90;0.40;;;;;;;-128.00;-1.00;-1.00;97850;295;1003505;-34
2023/04/26 08:52:10;;;;;;;5.20;0.90;;;;;;;-128.00;-1.00;-1.00;97934;284;1003957;-30
2023/04/26 08:54:36;;;;;;;1.60;0.40;;;;;;;-128.00;-1.00;-1.00;97796;295;1003531;-36
2023/04/26 08:57:02;;;;;;;4.20;0.30;;;;;;;-128.00;-1.00;-1.00;97889;295;1003567;-34
2023/04/26 08:59:29;;;;;;;0.30;0.20;;;;;;;-128.00;-1.00;-1.00;97838;296;1003598;-34
2023/04/26 09:01:56;;;;;;;4.10;0.40;;;;;;;-128.00;-1.00;-1.00;97852;284;1002821;-29
2023/04/26 09:04:22;;;;;;;4.10;0.40;;;;;;;-128.00;-1.00;-1.00;97832;288;1003096;-33
2023/04/26 09:06:49;;;;;;;5.60;0.80;;;;;;;-128.00;-1.00;-1.00;97805;295;1003219;-33
2023/04/26 09:09:18;;;;;;;0.30;0.10;;;;;;;-128.00;-1.00;-1.00;97842;296;1002562;-36
2023/04/26 09:11:56;;;;;;;0.60;0.20;;;;;;;-128.00;-1.00;-1.00;97840;297;1003958;-32
2023/04/26 09:14:22;;;;;;;6.00;0.40;;;;;;;-128.00;-1.00;-1.00;97839;296;1003098;-32
2023/04/26 09:16:48;;;;;;;0.70;0.40;;;;;;;-128.00;-1.00;-1.00;97833;296;1003142;-34
2023/04/26 09:19:14;;;;;;;0.90;0.20;;;;;;;-128.00;-1.00;-1.00;97888;296;1003449;-29
2023/04/26 09:21:45;;;;;;;3.00;0.70;;;;;;;-128.00;-1.00;-1.00;97843;295;1002548;-29
2023/04/26 09:24:11;;;;;;;2.00;0.30;;;;;;;-128.00;-1.00;-1.00;97807;295;1003978;-34
2023/04/26 09:26:36;;;;;;;0.70;0.30;;;;;;;-128.00;-1.00;-1.00;97877;295;1003489;-36
2023/04/26 09:29:14;;;;;;;2.50;0.40;;;;;;;-128.00;-1.00;-1.00;97837;295;1003629;-37
2023/04/26 09:31:45;;;;;;;2.10;0.30;;;;;;;-128.00;-1.00;-1.00;97909;295;1003335;-29
2023/04/26 09:34:11;;;;;;;2.00;0.80;;;;;;;-128.00;-1.00;-1.00;97768;295;1003253;-29
2023/04/26 09:36:49;;;;;;;2.00;0.30;;;;;;;-128.00;-1.00;-1.00;97846;295;1003014;-34
2023/04/26 09:39:38;;;;;;;1.50;0.40;;;;;;;-128.00;-1.00;-1.00;97792;297;1003964;-29
2023/04/26 09:42:08;;;;;;;3.60;0.80;;;;;;;-128.00;-1.00;-1.00;97868;295;1003316;-32
2023/04/26 09:44:33;;;;;;;1.10;0.30;;;;;;;-128.00;-1.00;-1.00;97815;296;1002853;-29
2023/04/26 09:47:03;;;;;;;13.60;0.30;;;;;;;-128.00;-1.00;-1.00;97802;296;1003108;-28
2023/04/26 09:49:47;;;;;;;1.90;0.40;;;;;;;-128.00;-1.00;-1.00;97946;296;1003120;-34
2023/04/26 09:52:13;;;;;;;3.30;1.00;;;;;;;-128.00;-1.00;-1.00;97965;295;1005469;-34
2023/04/26 09:54:42;;;;;;;8.20;0.30;;;;;;;-128.00;-1.00;-1.00;97848;295;1003267;-29
2023/04/26 09:57:07;;;;;;;5.20;0.50;;;;;;;-128.00;-1.00;-1.00;97788;295;1003609;-30
2023/04/26 09:59:45;;;;;;;4.40;0.40;;;;;;;-128.00;-1.00;-1.00;52602;295;7504437;-34
2023/04/26 10:02:15;;;;;;;14.40;0.50;;;;;;;-128.00;-1.00;-1.00;18909;295;7504832;-31
2023/04/26 10:04:43;;;;;;;14.40;0.50;;;;;;;-128.00;-1.00;-1.00;21853;336;7506054;-33
2023/04/26 10:07:09;;;;;;;6.00;0.40;;;;;;;-128.00;-1.00;-1.00;18480;347;7504165;-31
2023/04/26 10:09:34;;;;;;;4.40;0.40;;;;;;;-128.00;-1.00;-1.00;18462;295;7504824;-34
2023/04/26 10:12:00;;;;;;;6.10;0.30;;;;;;;-128.00;-1.00;-1.00;18481;295;7504681;-32
2023/04/26 10:14:26;;;;;;;1.70;0.40;;;;;;;-128.00;-1.00;-1.00;18488;288;7505230;-33
2023/04/26 10:16:53;;;;;;;2.70;0.80;;;;;;;-128.00;-1.00;-1.00;18456;295;7505925;-30
2023/04/26 10:19:20;;;;;;;0.60;0.40;;;;;;;-128.00;-1.00;-1.00;18469;295;7505985;-34
2023/04/26 10:21:46;;;;;;;0.60;0.20;;;;;;;-128.00;-1.00;-1.00;18469;295;7504720;-31
2023/04/26 10:24:12;;;;;;;4.40;0.50;;;;;;;-128.00;-1.00;-1.00;18460;308;7504311;-35
2023/04/26 10:26:55;;;;;;;8.50;0.50;;;;;;;-128.00;-1.00;-1.00;18859;312;7505285;-36
2023/04/26 10:29:21;;;;;;;5.90;0.80;;;;;;;-128.00;-1.00;-1.00;18460;297;7505796;-30
2023/04/26 10:32:04;;;;;;;1.40;0.40;;;;;;;-128.00;-1.00;-1.00;18509;288;7504962;-34
2023/04/26 10:34:32;;;;;;;0.70;0.30;;;;;;;-128.00;-1.00;-1.00;18510;295;7504655;-35
2023/04/26 10:37:15;;;;;;;4.20;0.30;;;;;;;-128.00;-1.00;-1.00;18489;296;7505994;-30
2023/04/26 10:39:42;;;;;;;2.00;0.50;;;;;;;-128.00;-1.00;-1.00;18499;295;7504336;-31
2023/04/26 10:42:24;;;;;;;5.90;1.00;;;;;;;-128.00;-1.00;-1.00;18480;296;7504346;-31
2023/04/26 10:44:54;;;;;;;1.80;0.30;;;;;;;-128.00;-1.00;-1.00;18469;348;7505764;-30
2023/04/26 10:47:27;;;;;;;2.20;0.40;;;;;;;-128.00;-1.00;-1.00;18440;288;7504672;-30
2023/04/26 10:50:00;;;;;;;1.10;0.40;;;;;;;-128.00;-1.00;-1.00;18452;297;7504418;-34
2023/04/26 10:52:26;;;;;;;9.80;0.60;;;;;;;-128.00;-1.00;-1.00;18454;344;7504650;-34
2023/04/26 10:54:57;;;;;;;4.60;0.50;;;;;;;-128.00;-1.00;-1.00;18887;288;7505357;-30
2023/04/26 10:57:43;;;;;;;1.30;0.80;;;;;;;-128.00;-1.00;-1.00;18507;295;7504517;-30
2023/04/26 11:00:19;;;;;;;2.30;0.30;;;;;;;-128.00;-1.00;-1.00;18457;295;7505960;-34
2023/04/26 11:02:54;;;;;;;1.90;0.50;;;;;;;-128.00;-1.00;-1.00;18499;295;7506355;-35
2023/04/26 11:05:26;;;;;;;1.60;0.30;;;;;;;-128.00;-1.00;-1.00;18469;285;7504870;-31
2023/04/26 11:49:09;;;;;;;1.10;0.30;;;;;;;-100.60;8.93;19829.00;98365;286;1544395;-33
2023/04/26 11:51:35;;;;;;;3.70;0.20;;;;;;;-128.00;-1.00;-1.00;97580;294;1004578;-33
2023/04/26 11:54:02;;;;;;;2.20;0.50;;;;;;;-128.00;-1.00;-1.00;97840;284;1003638;-33
2023/04/26 11:56:28;;;;;;;0.20;0.10;;;;;;;-128.00;-1.00;-1.00;97828;294;1004160;-30
2023/04/26 11:58:53;;;;;;;1.10;0.20;;;;;;;-128.00;-1.00;-1.00;97973;287;1004761;-30
2023/04/26 12:01:20;;;;;;;0.40;0.10;;;;;;;-128.00;-1.00;-1.00;97800;294;1003610;-34
2023/04/26 12:03:49;;;;;;;0.30;0.20;;;;;;;-128.00;-1.00;-1.00;97919;294;1003022;-29
2023/04/26 12:06:15;;;;;;;2.80;0.30;;;;;;;-128.00;-1.00;-1.00;97837;294;1003209;-34
2023/04/26 12:08:40;;;;;;;4.00;0.80;;;;;;;-128.00;-1.00;-1.00;97862;294;1003458;-29
2023/04/26 12:11:06;;;;;;;0.50;0.20;;;;;;;-128.00;-1.00;-1.00;97857;294;1003606;-29
2023/04/26 12:13:32;;;;;;;2.00;0.40;;;;;;;-128.00;-1.00;-1.00;97933;294;1005278;-34
2023/04/26 12:15:58;;;;;;;1.30;0.30;;;;;;;-128.00;-1.00;-1.00;97859;294;1004171;-29
2023/04/26 12:18:31;;;;;;;2.90;0.60;;;;;;;-128.00;-1.00;-1.00;97868;284;1003960;-30
2023/04/26 12:20:58;;;;;;;3.60;0.40;;;;;;;-128.00;-1.00;-1.00;97901;294;1004346;-35
2023/04/26 12:23:23;;;;;;;1.00;0.30;;;;;;;-128.00;-1.00;-1.00;97858;284;1004315;-30
2023/04/26 12:25:54;;;;;;;1.10;0.30;;;;;;;-128.00;-1.00;-1.00;97897;294;1003921;-33
2023/04/26 12:28:20;;;;;;;2.10;0.40;;;;;;;-128.00;-1.00;-1.00;97813;294;1002694;-33
2023/04/26 12:30:46;;;;;;;1.40;0.50;;;;;;;-128.00;-1.00;-1.00;97851;294;1004893;-33
2023/04/26 12:33:15;;;;;;;3.00;0.60;;;;;;;-128.00;-1.00;-1.00;97885;294;1003681;-29
2023/04/26 12:35:40;;;;;;;3.70;0.40;;;;;;;-128.00;-1.00;-1.00;97822;294;1003143;-29
2023/04/26 12:38:06;;;;;;;1.60;0.30;;;;;;;-128.00;-1.00;-1.00;97860;294;1004076;-29
2023/04/26 12:40:32;;;;;;;1.50;0.50;;;;;;;-128.00;-1.00;-1.00;97784;294;1004610;-33
2023/04/26 12:42:57;;;;;;;4.90;0.90;;;;;;;-128.00;-1.00;-1.00;97933;294;1003896;-33
2023/04/26 12:45:24;;;;;;;0.50;0.30;;;;;;;-128.00;-1.00;-1.00;97893;294;1003103;-36
2023/04/26 12:47:50;;;;;;;4.80;0.80;;;;;;;-128.00;-1.00;-1.00;97875;294;1004378;-31
2023/04/26 12:50:16;;;;;;;1.40;0.40;;;;;;;-128.00;-1.00;-1.00;97891;294;1003328;-30